Dryden Regional Airport
CYHD : now visible

Airfield :











YOU CAN JOIN US ON...

 
LOGIN :

Register | Disclaimer

   EN    FR    IT 

 









Legend :    VFR   Marginal VFR   IFR   Intensive IFR   Very Intensive IFR
Visi :
Ceiling :
>= 8 km
>= 3000ft
5 to 8 km
1000 to 3000 ft
1500m to 5 km
500 to 1000 ft
800 to 1500m
200 to 500 ft
< 800m
< 200 ft
Symbols :   Thunderstorms  Fog  Heavy snow  Heavy precipitations  Wind > 20 kt






- Airport Elevation : 1354 ft
- IATA code : YHD


CYHD - Dryden Regional

CURRENT METAR :
  • 010100Z AUTO 10006KT 9SM CLR 08/M10 A3005 RMK SLP196

EXPIRED METARs :
  • 010000Z AUTO 09005KT 9SM CLR 10/M10 A3005 RMK SLP195
  • 312300Z AUTO 18006KT 130V190 9SM CLR 11/M11 A3005 RMK SLP196

TAF TAF CYHD
Valid from the 31 at 20:00 until the 01 at 08:00 UTC


311938Z 3120/0108 14008KT P6SM SCT220
BECMG 0100/0102 10008KT RMK FCST BASED ON AUTO OBS. NXT FCST BY 010200Z



MET'MAP, your aeronautical weather chart ! - Copyright ORBIFLY December 2007 - Disclaimer

ORBIFLY MET'MAP TEAM :

Programming & Development : Alexandra Zaïnal
Concept & original design : Baudouin d'Aumeries
Assistance for programming : Marc-Olivier Méhu
Technical & hardware support : Manuel Goepfert

Contact : metmap@orbifly.com




SOURCES & CREDITS :

   NOAA       Earth
Advisory